Calamine, Arkansas
Current Conditions -  °F | °C
As of 6:55 PM on Monday 22 Dec 2014 (Local Time) from KBVX Reporting Station
Overcast Overcast  
Wind Chill: 54°   Ceiling: 600
Heat Index: 54°   Visibility: 5mi
Dew Point: 52°   Wind: 6mph
Humidity: 94%   Direction: 210°SSW
Pressure: 29.59"   Gusts: NA
Location:  35.973°N, 91.3957°W
Report Text: KBVX 230055Z AUTO 21005KT 5SM OVC006 12/11 A2959 RMK AO1
Loading
Personal Weather Stations






























Interactive Weather Map New forecast layout! Learn more

10-Day Weather Forecast

Advertisements
Track Severe Weather on mobile